Main page
METAR-TAF:

METAR-TAF

Airports :

Zeltweg Air Base

Zeltweg, Austria

latitude: 47-12N, longitude: 014-45E, elevation: 677 m

Current weather observation

The report was made 55 minutes ago, at 20:50 UTC
Wind 4 kt from the Northwest
Temperature -3°C
Humidity 74%
Pressure 1016 hPa
Clear sky

METAR: LOXZ 012050Z 32004KT 10KM SKC M03/M07 Q1016

Time: 23:45 (21:45 UTC)

Forecast

The report was made 10 hours and 30 minutes ago, at 11:15 UTC
Forecast valid from 01 at 12 UTC to 01 at 21 UTC
Wind 6 kt from variable directions
Visibility 10 km or more
Few clouds at a height of 5000 ft

TAF: LOXZ 011115Z 0112/0121 VRB06KT 9999 FEW050

Weather observations and forecasts of more than 4000 airports (METAR and TAF reports).

The available stations are represented by yellow and red dots on the map.

Hover mouse over dot to see the name of the station.

Then click to see weather observations and forecasts.

To change the map : click on the green buttons with a black cross to zoom in, on the green button with a dash to zoom out, or on the green arrows for adjacent maps.


METAR-TAF: